sensor_id;sensor_type;location;lat;lon;timestamp;pressure;altitude;pressure_sealevel;temperature;humidity
49949;BME280;35840;45.982;8.890;2023-02-11T00:01:48;100401.09;;;0.28;54.96
49949;BME280;35840;45.982;8.890;2023-02-11T00:04:15;100400.97;;;0.19;54.12
49949;BME280;35840;45.982;8.890;2023-02-11T00:06:42;100399.31;;;0.21;54.12
49949;BME280;35840;45.982;8.890;2023-02-11T00:09:09;100397.78;;;0.32;54.23
49949;BME280;35840;45.982;8.890;2023-02-11T00:11:36;100396.13;;;0.34;54.41
49949;BME280;35840;45.982;8.890;2023-02-11T00:14:05;100394.25;;;0.21;54.16
49949;BME280;35840;45.982;8.890;2023-02-11T00:16:33;100393.34;;;0.17;54.92
49949;BME280;35840;45.982;8.890;2023-02-11T00:19:01;100395.94;;;0.20;55.49
49949;BME280;35840;45.982;8.890;2023-02-11T00:21:28;100389.22;;;0.22;54.95
49949;BME280;35840;45.982;8.890;2023-02-11T00:23:57;100396.81;;;0.22;53.67
49949;BME280;35840;45.982;8.890;2023-02-11T00:26:33;100382.38;;;0.16;54.74
49949;BME280;35840;45.982;8.890;2023-02-11T00:29:01;100390.88;;;0.19;55.00
49949;BME280;35840;45.982;8.890;2023-02-11T00:31:30;100396.00;;;0.25;54.55
49949;BME280;35840;45.982;8.890;2023-02-11T00:33:56;100387.44;;;0.16;54.97
49949;BME280;35840;45.982;8.890;2023-02-11T00:36:26;100395.81;;;0.14;55.37
49949;BME280;35840;45.982;8.890;2023-02-11T00:38:54;100383.16;;;0.12;55.14
49949;BME280;35840;45.982;8.890;2023-02-11T00:41:22;100379.72;;;0.07;54.76
49949;BME280;35840;45.982;8.890;2023-02-11T00:43:50;100391.50;;;0.05;55.34
49949;BME280;35840;45.982;8.890;2023-02-11T00:46:17;100371.28;;;0.07;56.12
49949;BME280;35840;45.982;8.890;2023-02-11T00:48:44;100376.41;;;0.11;54.21
49949;BME280;35840;45.982;8.890;2023-02-11T00:51:11;100373.00;;;0.09;54.74
49949;BME280;35840;45.982;8.890;2023-02-11T00:53:38;100377.31;;;0.15;54.39
49949;BME280;35840;45.982;8.890;2023-02-11T00:56:06;100377.16;;;0.06;54.77
49949;BME280;35840;45.982;8.890;2023-02-11T00:58:33;100376.28;;;0.04;55.51
49949;BME280;35840;45.982;8.890;2023-02-11T01:01:00;100375.47;;;0.03;55.08
49949;BME280;35840;45.982;8.890;2023-02-11T01:03:27;100377.84;;;-0.05;55.32
49949;BME280;35840;45.982;8.890;2023-02-11T01:05:54;100377.69;;;-0.17;55.27
49949;BME280;35840;45.982;8.890;2023-02-11T01:08:21;100362.50;;;-0.17;56.01
49949;BME280;35840;45.982;8.890;2023-02-11T01:11:02;100377.84;;;-0.05;55.05
49949;BME280;35840;45.982;8.890;2023-02-11T01:13:32;100385.41;;;-0.06;55.54
49949;BME280;35840;45.982;8.890;2023-02-11T01:16:00;100386.06;;;-0.20;55.92
49949;BME280;35840;45.982;8.890;2023-02-11T01:18:27;100391.84;;;-0.27;55.45
49949;BME280;35840;45.982;8.890;2023-02-11T01:20:54;100384.13;;;-0.35;56.55
49949;BME280;35840;45.982;8.890;2023-02-11T01:23:22;100381.66;;;-0.30;55.56
49949;BME280;35840;45.982;8.890;2023-02-11T01:25:49;100364.09;;;-0.22;56.11
49949;BME280;35840;45.982;8.890;2023-02-11T01:28:18;100380.88;;;-0.27;56.15
49949;BME280;35840;45.982;8.890;2023-02-11T01:30:45;100369.22;;;-0.19;55.50
49949;BME280;35840;45.982;8.890;2023-02-11T01:33:12;100377.50;;;-0.28;55.45
49949;BME280;35840;45.982;8.890;2023-02-11T01:35:43;100365.75;;;-0.24;54.90
49949;BME280;35840;45.982;8.890;2023-02-11T01:38:21;100373.31;;;-0.24;55.94
49949;BME280;35840;45.982;8.890;2023-02-11T01:40:53;100366.53;;;-0.28;56.40
49949;BME280;35840;45.982;8.890;2023-02-11T01:43:22;100357.13;;;-0.36;55.53
49949;BME280;35840;45.982;8.890;2023-02-11T01:45:57;100372.47;;;-0.26;56.18
49949;BME280;35840;45.982;8.890;2023-02-11T01:48:34;100358.09;;;-0.29;55.58
49949;BME280;35840;45.982;8.890;2023-02-11T01:51:07;100363.22;;;-0.24;55.79
49949;BME280;35840;45.982;8.890;2023-02-11T01:53:35;100366.50;;;-0.30;56.31
49949;BME280;35840;45.982;8.890;2023-02-11T01:56:24;100362.19;;;-0.36;55.66
49949;BME280;35840;45.982;8.890;2023-02-11T01:59:15;100361.31;;;-0.39;55.60
49949;BME280;35840;45.982;8.890;2023-02-11T02:01:47;100363.84;;;-0.38;56.25
49949;BME280;35840;45.982;8.890;2023-02-11T02:04:17;100356.25;;;-0.39;55.59
49949;BME280;35840;45.982;8.890;2023-02-11T02:07:19;100359.63;;;-0.39;56.04
49949;BME280;35840;45.982;8.890;2023-02-11T02:09:57;100358.84;;;-0.35;56.41
49949;BME280;35840;45.982;8.890;2023-02-11T02:12:25;100358.06;;;-0.32;55.22
49949;BME280;35840;45.982;8.890;2023-02-11T02:15:10;100354.56;;;-0.39;55.48
49949;BME280;35840;45.982;8.890;2023-02-11T02:17:58;100343.44;;;-0.48;56.23
49949;BME280;35840;45.982;8.890;2023-02-11T02:34:49;100334.00;;;-0.60;56.73
49949;BME280;35840;45.982;8.890;2023-02-11T02:37:34;100336.34;;;-0.71;57.47
49949;BME280;35840;45.982;8.890;2023-02-11T02:40:10;100325.41;;;-0.70;55.77
49949;BME280;35840;45.982;8.890;2023-02-11T02:42:39;100328.09;;;-0.62;56.48
49949;BME280;35840;45.982;8.890;2023-02-11T02:45:08;100326.38;;;-0.63;56.23
49949;BME280;35840;45.982;8.890;2023-02-11T02:47:36;100332.00;;;-0.78;57.21
49949;BME280;35840;45.982;8.890;2023-02-11T02:50:03;100303.19;;;-0.90;56.76
49949;BME280;35840;45.982;8.890;2023-02-11T03:06:26;100305.97;;;-0.76;56.92
49949;BME280;35840;45.982;8.890;2023-02-11T03:09:36;100301.88;;;-0.69;55.82
49949;BME280;35840;45.982;8.890;2023-02-11T03:12:05;100293.25;;;-0.82;56.69
49949;BME280;35840;45.982;8.890;2023-02-11T03:14:33;100298.31;;;-0.80;56.09
49949;BME280;35840;45.982;8.890;2023-02-11T03:17:03;100300.88;;;-0.79;56.64
49949;BME280;35840;45.982;8.890;2023-02-11T03:19:35;100297.44;;;-0.81;57.18
49949;BME280;35840;45.982;8.890;2023-02-11T03:22:07;100295.06;;;-0.73;56.32
49949;BME280;35840;45.982;8.890;2023-02-11T03:24:37;100298.25;;;-0.83;56.46
49949;BME280;35840;45.982;8.890;2023-02-11T03:27:23;100299.81;;;-0.92;57.48
49949;BME280;35840;45.982;8.890;2023-02-11T03:32:31;100286.28;;;-0.94;57.01
49949;BME280;35840;45.982;8.890;2023-02-11T03:35:19;100289.91;;;-0.79;57.13
49949;BME280;35840;45.982;8.890;2023-02-11T03:37:53;100286.41;;;-0.88;56.57
49949;BME280;35840;45.982;8.890;2023-02-11T03:40:24;100284.78;;;-0.82;57.30
49949;BME280;35840;45.982;8.890;2023-02-11T03:43:00;100284.88;;;-0.79;56.25
49949;BME280;35840;45.982;8.890;2023-02-11T03:45:29;100279.72;;;-0.84;56.40
49949;BME280;35840;45.982;8.890;2023-02-11T03:48:05;100283.16;;;-0.80;55.76
49949;BME280;35840;45.982;8.890;2023-02-11T03:50:35;100270.50;;;-0.82;56.85
49949;BME280;35840;45.982;8.890;2023-02-11T03:53:03;100273.75;;;-0.91;57.12
49949;BME280;35840;45.982;8.890;2023-02-11T03:55:34;100269.50;;;-0.92;57.63
49949;BME280;35840;45.982;8.890;2023-02-11T03:58:02;100261.66;;;-1.07;57.71
49949;BME280;35840;45.982;8.890;2023-02-11T04:00:34;100265.75;;;-1.14;58.13
49949;BME280;35840;45.982;8.890;2023-02-11T04:03:02;100270.81;;;-1.12;58.09
49949;BME280;35840;45.982;8.890;2023-02-11T04:05:30;100272.56;;;-1.08;57.32
49949;BME280;35840;45.982;8.890;2023-02-11T04:07:57;100270.00;;;-1.11;57.50
49949;BME280;35840;45.982;8.890;2023-02-11T04:10:24;100263.16;;;-1.18;57.61
49949;BME280;35840;45.982;8.890;2023-02-11T04:12:51;100258.91;;;-1.19;57.98
49949;BME280;35840;45.982;8.890;2023-02-11T04:15:17;100261.66;;;-1.07;57.50
49949;BME280;35840;45.982;8.890;2023-02-11T04:17:44;100256.50;;;-1.13;58.09
49949;BME280;35840;45.982;8.890;2023-02-11T04:20:11;100253.13;;;-1.14;57.56
49949;BME280;35840;45.982;8.890;2023-02-11T04:22:38;100262.53;;;-1.04;57.18
49949;BME280;35840;45.982;8.890;2023-02-11T04:25:06;100260.75;;;-1.09;57.07
49949;BME280;35840;45.982;8.890;2023-02-11T04:27:33;100248.16;;;-1.09;57.16
49949;BME280;35840;45.982;8.890;2023-02-11T04:29:59;100259.94;;;-1.10;56.87
49949;BME280;35840;45.982;8.890;2023-02-11T04:32:26;100239.72;;;-1.11;58.14
49949;BME280;35840;45.982;8.890;2023-02-11T04:34:53;100244.00;;;-1.07;56.37
49949;BME280;35840;45.982;8.890;2023-02-11T04:37:20;100239.69;;;-1.13;56.79
49949;BME280;35840;45.982;8.890;2023-02-11T04:39:47;100250.38;;;-1.26;57.05
49949;BME280;35840;45.982;8.890;2023-02-11T04:42:14;100245.38;;;-1.25;57.87
49949;BME280;35840;45.982;8.890;2023-02-11T04:44:40;100214.78;;;-1.43;57.05
49949;BME280;35840;45.982;8.890;2023-02-11T04:47:07;100231.06;;;-1.24;57.21
49949;BME280;35840;45.982;8.890;2023-02-11T04:49:34;100236.28;;;-1.15;57.23
49949;BME280;35840;45.982;8.890;2023-02-11T04:52:01;100233.63;;;-1.23;56.82
49949;BME280;35840;45.982;8.890;2023-02-11T04:54:27;100224.41;;;-1.21;58.22
49949;BME280;35840;45.982;8.890;2023-02-11T04:56:54;100234.44;;;-1.24;57.84
49949;BME280;35840;45.982;8.890;2023-02-11T04:59:20;100237.88;;;-1.20;56.56
49949;BME280;35840;45.982;8.890;2023-02-11T05:01:47;100234.44;;;-1.24;56.79
49949;BME280;35840;45.982;8.890;2023-02-11T05:04:15;100236.81;;;-1.33;58.20
49949;BME280;35840;45.982;8.890;2023-02-11T05:06:42;100235.91;;;-1.36;57.08
49949;BME280;35840;45.982;8.890;2023-02-11T05:09:12;100235.16;;;-1.31;57.22
49949;BME280;35840;45.982;8.890;2023-02-11T05:11:39;100229.41;;;-1.22;56.66
49949;BME280;35840;45.982;8.890;2023-02-11T05:14:06;100229.28;;;-1.30;56.79
49949;BME280;35840;45.982;8.890;2023-02-11T05:16:33;100224.16;;;-1.36;58.70
49949;BME280;35840;45.982;8.890;2023-02-11T05:19:00;100217.47;;;-1.32;58.47
49949;BME280;35840;45.982;8.890;2023-02-11T05:21:27;100227.75;;;-1.22;56.84
49949;BME280;35840;45.982;8.890;2023-02-11T05:23:53;100209.97;;;-1.28;56.96
49949;BME280;35840;45.982;8.890;2023-02-11T05:26:20;100220.91;;;-1.29;57.13
49949;BME280;35840;45.982;8.890;2023-02-11T05:28:47;100222.63;;;-1.26;57.76
49949;BME280;35840;45.982;8.890;2023-02-11T05:31:13;100221.75;;;-1.28;57.29
49949;BME280;35840;45.982;8.890;2023-02-11T05:33:40;100227.53;;;-1.34;58.06
49949;BME280;35840;45.982;8.890;2023-02-11T05:36:09;100227.56;;;-1.32;57.05
49949;BME280;35840;45.982;8.890;2023-02-11T05:38:37;100220.72;;;-1.40;57.29
49949;BME280;35840;45.982;8.890;2023-02-11T05:41:05;100227.22;;;-1.51;57.68
49949;BME280;35840;45.982;8.890;2023-02-11T05:43:32;100229.13;;;-1.39;57.88
49949;BME280;35840;45.982;8.890;2023-02-11T05:46:02;100212.25;;;-1.43;57.23
49949;BME280;35840;45.982;8.890;2023-02-11T05:48:29;100224.69;;;-1.51;58.47
49949;BME280;35840;45.982;8.890;2023-02-11T05:50:56;100211.97;;;-1.59;58.40
49949;BME280;35840;45.982;8.890;2023-02-11T05:53:23;100215.44;;;-1.50;57.57
49949;BME280;35840;45.982;8.890;2023-02-11T05:55:50;100215.28;;;-1.61;59.18
49949;BME280;35840;45.982;8.890;2023-02-11T05:58:17;100220.22;;;-1.66;59.52
49949;BME280;35840;45.982;8.890;2023-02-11T06:00:43;100222.78;;;-1.64;58.74
49949;BME280;35840;45.982;8.890;2023-02-11T06:03:10;100221.88;;;-1.66;59.22
49949;BME280;35840;45.982;8.890;2023-02-11T06:05:37;100219.22;;;-1.74;59.10
49949;BME280;35840;45.982;8.890;2023-02-11T06:08:04;100218.25;;;-1.81;59.42
49949;BME280;35840;45.982;8.890;2023-02-11T06:10:30;100220.81;;;-1.78;58.79
49949;BME280;35840;45.982;8.890;2023-02-11T06:12:57;100199.13;;;-1.69;58.63
49949;BME280;35840;45.982;8.890;2023-02-11T06:15:24;100214.22;;;-1.73;58.99
49949;BME280;35840;45.982;8.890;2023-02-11T06:17:51;100209.31;;;-1.65;58.63
49949;BME280;35840;45.982;8.890;2023-02-11T06:20:18;100212.00;;;-1.56;58.61
49949;BME280;35840;45.982;8.890;2023-02-11T06:22:45;100207.72;;;-1.60;57.56
49949;BME280;35840;45.982;8.890;2023-02-11T06:25:12;100204.31;;;-1.62;58.88
49949;BME280;35840;45.982;8.890;2023-02-11T06:27:39;100205.91;;;-1.67;58.15
49949;BME280;35840;45.982;8.890;2023-02-11T06:30:07;100200.88;;;-1.67;58.49
49949;BME280;35840;45.982;8.890;2023-02-11T06:32:34;100197.41;;;-1.72;59.66
49949;BME280;35840;45.982;8.890;2023-02-11T06:35:10;100208.19;;;-1.79;59.39
49949;BME280;35840;45.982;8.890;2023-02-11T06:37:39;100200.81;;;-1.70;59.10
49949;BME280;35840;45.982;8.890;2023-02-11T06:40:06;100202.59;;;-1.66;59.16
49949;BME280;35840;45.982;8.890;2023-02-11T06:42:33;100198.38;;;-1.65;57.97
49949;BME280;35840;45.982;8.890;2023-02-11T06:45:02;100206.75;;;-1.66;58.82
49949;BME280;35840;45.982;8.890;2023-02-11T06:47:31;100208.44;;;-1.67;58.85
49949;BME280;35840;45.982;8.890;2023-02-11T06:49:58;100201.75;;;-1.65;59.11
49949;BME280;35840;45.982;8.890;2023-02-11T06:52:25;100208.31;;;-1.73;59.50
49949;BME280;35840;45.982;8.890;2023-02-11T06:54:51;100207.69;;;-1.63;59.00
49949;BME280;35840;45.982;8.890;2023-02-11T06:57:18;100188.50;;;-1.54;59.16
49949;BME280;35840;45.982;8.890;2023-02-11T06:59:45;100191.56;;;-1.69;57.67
49949;BME280;35840;45.982;8.890;2023-02-11T07:02:11;100195.88;;;-1.64;58.35
49949;BME280;35840;45.982;8.890;2023-02-11T07:04:38;100195.06;;;-1.63;58.29
49949;BME280;35840;45.982;8.890;2023-02-11T07:07:05;100194.88;;;-1.72;58.97
49949;BME280;35840;45.982;8.890;2023-02-11T07:09:31;100201.63;;;-1.71;58.59
49949;BME280;35840;45.982;8.890;2023-02-11T07:11:58;100206.81;;;-1.63;58.74
49949;BME280;35840;45.982;8.890;2023-02-11T07:14:25;100183.25;;;-1.65;59.21
49949;BME280;35840;45.982;8.890;2023-02-11T07:16:51;100203.56;;;-1.58;59.81
49949;BME280;35840;45.982;8.890;2023-02-11T07:19:18;100203.41;;;-1.67;59.22
49949;BME280;35840;45.982;8.890;2023-02-11T07:21:45;100204.41;;;-1.59;59.14
49949;BME280;35840;45.982;8.890;2023-02-11T07:24:12;100197.66;;;-1.60;59.37
49949;BME280;35840;45.982;8.890;2023-02-11T07:26:39;100203.66;;;-1.53;59.47
49949;BME280;35840;45.982;8.890;2023-02-11T07:29:05;100204.44;;;-1.56;60.05
49949;BME280;35840;45.982;8.890;2023-02-11T07:31:32;100214.53;;;-1.56;59.09
49949;BME280;35840;45.982;8.890;2023-02-11T07:34:00;100219.75;;;-1.45;59.45
49949;BME280;35840;45.982;8.890;2023-02-11T07:36:28;100214.06;;;-1.36;59.35
49949;BME280;35840;45.982;8.890;2023-02-11T07:38:55;100219.19;;;-1.31;58.57
49949;BME280;35840;45.982;8.890;2023-02-11T07:41:23;100209.13;;;-1.28;60.34
49949;BME280;35840;45.982;8.890;2023-02-11T07:43:50;100209.97;;;-1.28;58.82
49949;BME280;35840;45.982;8.890;2023-02-11T07:46:24;100215.97;;;-1.23;59.22
49949;BME280;35840;45.982;8.890;2023-02-11T07:48:51;100222.78;;;-1.17;60.63
49949;BME280;35840;45.982;8.890;2023-02-11T07:51:21;100217.13;;;-1.04;60.98
49949;BME280;35840;45.982;8.890;2023-02-11T07:53:48;100225.69;;;-0.94;61.05
49949;BME280;35840;45.982;8.890;2023-02-11T07:56:16;100224.75;;;-1.00;62.10
49949;BME280;35840;45.982;8.890;2023-02-11T07:58:43;100220.66;;;-0.92;61.84
49949;BME280;35840;45.982;8.890;2023-02-11T08:01:14;100215.72;;;-0.86;61.94
49949;BME280;35840;45.982;8.890;2023-02-11T08:03:42;100211.66;;;-0.79;62.34
49949;BME280;35840;45.982;8.890;2023-02-11T08:06:12;100214.22;;;-0.76;62.35
49949;BME280;35840;45.982;8.890;2023-02-11T08:08:40;100215.09;;;-0.73;61.40
49949;BME280;35840;45.982;8.890;2023-02-11T08:11:08;100217.75;;;-0.65;60.86
49949;BME280;35840;45.982;8.890;2023-02-11T08:13:35;100208.50;;;-0.63;61.98
49949;BME280;35840;45.982;8.890;2023-02-11T08:16:03;100207.84;;;-0.51;60.88
49949;BME280;35840;45.982;8.890;2023-02-11T08:18:31;100217.25;;;-0.42;61.07
49949;BME280;35840;45.982;8.890;2023-02-11T08:21:16;100216.47;;;-0.38;60.83
49949;BME280;35840;45.982;8.890;2023-02-11T08:23:43;100204.81;;;-0.27;60.71
49949;BME280;35840;45.982;8.890;2023-02-11T08:26:18;100197.16;;;-0.31;59.51
49949;BME280;35840;45.982;8.890;2023-02-11T08:28:46;100221.66;;;-0.27;59.33
49949;BME280;35840;45.982;8.890;2023-02-11T08:31:16;100203.16;;;-0.25;58.94
49949;BME280;35840;45.982;8.890;2023-02-11T08:33:43;100204.94;;;-0.18;60.26
49949;BME280;35840;45.982;8.890;2023-02-11T08:36:21;100204.25;;;-0.06;59.51
49949;BME280;35840;45.982;8.890;2023-02-11T08:38:49;100192.44;;;-0.05;59.47
49949;BME280;35840;45.982;8.890;2023-02-11T08:41:16;100201.81;;;0.04;58.14
49949;BME280;35840;45.982;8.890;2023-02-11T08:43:44;100195.19;;;0.12;59.10
49949;BME280;35840;45.982;8.890;2023-02-11T08:46:14;100188.53;;;0.19;58.30
49949;BME280;35840;45.982;8.890;2023-02-11T08:48:42;100188.53;;;0.20;59.05
49949;BME280;35840;45.982;8.890;2023-02-11T08:51:13;100179.28;;;0.24;59.64
49949;BME280;35840;45.982;8.890;2023-02-11T08:53:41;100175.94;;;0.25;59.27
49949;BME280;35840;45.982;8.890;2023-02-11T08:56:09;100192.88;;;0.30;59.79
49949;BME280;35840;45.982;8.890;2023-02-11T08:58:39;100174.25;;;0.25;59.15
49949;BME280;35840;45.982;8.890;2023-02-11T09:01:27;100187.06;;;0.39;58.50
49949;BME280;35840;45.982;8.890;2023-02-11T09:03:55;100186.25;;;0.45;57.51
49949;BME280;35840;45.982;8.890;2023-02-11T09:06:24;100189.63;;;0.45;55.53
49949;BME280;35840;45.982;8.890;2023-02-11T09:08:53;100187.22;;;0.56;55.26
49949;BME280;35840;45.982;8.890;2023-02-11T09:11:32;100160.13;;;0.43;55.60
49949;BME280;35840;45.982;8.890;2023-02-11T09:14:00;100184.66;;;0.51;54.58
49949;BME280;35840;45.982;8.890;2023-02-11T09:16:34;100191.44;;;0.56;55.51
49949;BME280;35840;45.982;8.890;2023-02-11T09:19:03;100190.66;;;0.61;55.92
49949;BME280;35840;45.982;8.890;2023-02-11T09:21:30;100189.84;;;0.65;56.89
49949;BME280;35840;45.982;8.890;2023-02-11T09:23:57;100190.72;;;0.69;57.26
49949;BME280;35840;45.982;8.890;2023-02-11T09:26:26;100187.41;;;0.76;57.02
49949;BME280;35840;45.982;8.890;2023-02-11T09:28:54;100189.06;;;0.71;56.12
49949;BME280;35840;45.982;8.890;2023-02-11T09:31:23;100189.91;;;0.73;57.11
49949;BME280;35840;45.982;8.890;2023-02-11T09:33:54;100184.94;;;0.81;56.93
49949;BME280;35840;45.982;8.890;2023-02-11T09:36:24;100184.91;;;0.79;56.00
49949;BME280;35840;45.982;8.890;2023-02-11T09:38:52;100183.31;;;0.91;55.04
49949;BME280;35840;45.982;8.890;2023-02-11T09:41:47;100180.84;;;0.97;55.04
49949;BME280;35840;45.982;8.890;2023-02-11T09:44:22;100180.09;;;1.12;54.27
49949;BME280;35840;45.982;8.890;2023-02-11T09:46:58;100189.56;;;1.36;55.56
49949;BME280;35840;45.982;8.890;2023-02-11T09:49:45;100192.19;;;1.48;55.17
49949;BME280;35840;45.982;8.890;2023-02-11T09:52:29;100187.19;;;1.58;54.89
49949;BME280;35840;45.982;8.890;2023-02-11T09:55:05;100193.94;;;1.60;55.29
49949;BME280;35840;45.982;8.890;2023-02-11T09:57:36;100195.63;;;1.61;54.60
49949;BME280;35840;45.982;8.890;2023-02-11T10:00:27;100192.22;;;1.54;53.97
49949;BME280;35840;45.982;8.890;2023-02-11T10:11:40;100188.31;;;2.28;50.14
49949;BME280;35840;45.982;8.890;2023-02-11T10:21:58;100186.72;;;2.70;46.56
49949;BME280;35840;45.982;8.890;2023-02-11T10:24:30;100177.44;;;2.78;47.33
49949;BME280;35840;45.982;8.890;2023-02-11T10:26:57;100179.97;;;2.78;46.77
49949;BME280;35840;45.982;8.890;2023-02-11T10:29:41;100173.16;;;2.69;47.07
49949;BME280;35840;45.982;8.890;2023-02-11T10:32:43;100169.78;;;2.61;46.68
49949;BME280;35840;45.982;8.890;2023-02-11T10:35:18;100180.81;;;2.72;49.59
49949;BME280;35840;45.982;8.890;2023-02-11T10:37:47;100173.16;;;2.68;49.37
49949;BME280;35840;45.982;8.890;2023-02-11T10:40:23;100174.03;;;2.74;49.75
49949;BME280;35840;45.982;8.890;2023-02-11T10:42:53;100168.09;;;2.75;49.85
49949;BME280;35840;45.982;8.890;2023-02-11T10:45:29;100164.72;;;2.80;48.85
49949;BME280;35840;45.982;8.890;2023-02-11T10:47:59;100179.09;;;2.76;49.65
49949;BME280;35840;45.982;8.890;2023-02-11T10:50:30;100163.88;;;2.88;50.22
49949;BME280;35840;45.982;8.890;2023-02-11T10:55:52;100158.78;;;3.21;51.32
49949;BME280;35840;45.982;8.890;2023-02-11T10:58:28;100165.53;;;3.19;49.11
49949;BME280;35840;45.982;8.890;2023-02-11T11:00:57;100148.59;;;3.33;49.57
49949;BME280;35840;45.982;8.890;2023-02-11T11:03:28;100147.72;;;3.43;48.94
49949;BME280;35840;45.982;8.890;2023-02-11T11:05:59;100136.69;;;3.49;45.42
49949;BME280;35840;45.982;8.890;2023-02-11T11:08:46;100135.00;;;3.45;45.09
49949;BME280;35840;45.982;8.890;2023-02-11T11:11:20;100141.81;;;3.44;45.95
49949;BME280;35840;45.982;8.890;2023-02-11T11:16:28;100123.03;;;3.78;48.24
49949;BME280;35840;45.982;8.890;2023-02-11T11:21:53;100119.66;;;3.68;46.61
49949;BME280;35840;45.982;8.890;2023-02-11T11:24:39;100112.09;;;3.59;46.77
49949;BME280;35840;45.982;8.890;2023-02-11T11:27:17;100092.59;;;3.58;46.20
49949;BME280;35840;45.982;8.890;2023-02-11T11:29:48;100097.59;;;3.75;46.95
49949;BME280;35840;45.982;8.890;2023-02-11T11:32:19;100091.56;;;3.97;45.26
49949;BME280;35840;45.982;8.890;2023-02-11T11:34:49;100088.72;;;4.41;42.60
49949;BME280;35840;45.982;8.890;2023-02-11T11:37:30;100068.22;;;4.61;43.57
49949;BME280;35840;45.982;8.890;2023-02-11T11:40:30;100077.22;;;4.96;45.63
49949;BME280;35840;45.982;8.890;2023-02-11T11:45:39;100064.19;;;5.25;44.56
49949;BME280;35840;45.982;8.890;2023-02-11T11:48:12;100061.50;;;5.38;43.96
49949;BME280;35840;45.982;8.890;2023-02-11T11:50:48;100055.44;;;5.48;42.44
49949;BME280;35840;45.982;8.890;2023-02-11T11:53:33;100059.59;;;5.55;41.40
49949;BME280;35840;45.982;8.890;2023-02-11T11:58:32;100048.66;;;5.44;39.00
49949;BME280;35840;45.982;8.890;2023-02-11T12:08:56;100043.91;;;5.84;40.65
49949;BME280;35840;45.982;8.890;2023-02-11T12:11:30;100038.66;;;5.94;39.61
49949;BME280;35840;45.982;8.890;2023-02-11T12:27:57;100019.34;;;6.36;41.32
49949;BME280;35840;45.982;8.890;2023-02-11T12:35:57;100013.44;;;6.31;39.70
49949;BME280;35840;45.982;8.890;2023-02-11T12:38:34;100017.13;;;6.13;39.03
49949;BME280;35840;45.982;8.890;2023-02-11T12:43:38;100010.16;;;6.25;37.94
49949;BME280;35840;45.982;8.890;2023-02-11T12:57:17;99991.63;;;6.12;37.67
49949;BME280;35840;45.982;8.890;2023-02-11T13:05:30;99975.63;;;6.52;39.41
49949;BME280;35840;45.982;8.890;2023-02-11T13:08:04;99974.13;;;6.87;39.71
49949;BME280;35840;45.982;8.890;2023-02-11T13:10:39;99962.13;;;6.92;38.20
49949;BME280;35840;45.982;8.890;2023-02-11T13:13:24;99979.81;;;7.01;39.04
49949;BME280;35840;45.982;8.890;2023-02-11T13:16:01;99963.72;;;7.38;37.78
49949;BME280;35840;45.982;8.890;2023-02-11T13:19:02;99964.06;;;7.62;37.80
49949;BME280;35840;45.982;8.890;2023-02-11T13:21:47;99957.06;;;7.70;37.65
49949;BME280;35840;45.982;8.890;2023-02-11T13:24:33;99947.94;;;7.58;37.30
49949;BME280;35840;45.982;8.890;2023-02-11T13:30:23;99951.94;;;7.70;36.70
49949;BME280;35840;45.982;8.890;2023-02-11T13:33:01;99954.81;;;7.94;37.50
49949;BME280;35840;45.982;8.890;2023-02-11T13:35:36;99943.34;;;8.09;35.09
49949;BME280;35840;45.982;8.890;2023-02-11T13:40:42;99952.88;;;8.04;34.65
49949;BME280;35840;45.982;8.890;2023-02-11T13:43:22;99944.94;;;8.13;35.00
49949;BME280;35840;45.982;8.890;2023-02-11T13:45:51;99950.13;;;8.12;35.22
49949;BME280;35840;45.982;8.890;2023-02-11T13:48:34;99947.06;;;7.97;35.04
49949;BME280;35840;45.982;8.890;2023-02-11T13:51:05;99945.63;;;7.85;34.95
49949;BME280;35840;45.982;8.890;2023-02-11T13:53:48;99942.81;;;7.96;36.59
49949;BME280;35840;45.982;8.890;2023-02-11T13:56:28;99936.16;;;8.23;36.58
49949;BME280;35840;45.982;8.890;2023-02-11T13:58:57;99928.59;;;8.19;36.14
49949;BME280;35840;45.982;8.890;2023-02-11T14:04:33;99929.84;;;8.70;35.51
49949;BME280;35840;45.982;8.890;2023-02-11T14:07:32;99925.22;;;8.83;34.50
49949;BME280;35840;45.982;8.890;2023-02-11T14:13:26;99919.22;;;9.13;33.82
49949;BME280;35840;45.982;8.890;2023-02-11T14:16:22;99922.13;;;9.31;33.29
49949;BME280;35840;45.982;8.890;2023-02-11T14:19:03;99921.75;;;9.43;35.30
49949;BME280;35840;45.982;8.890;2023-02-11T14:21:39;99928.41;;;9.49;34.34
49949;BME280;35840;45.982;8.890;2023-02-11T14:26:54;99916.28;;;9.54;34.05
49949;BME280;35840;45.982;8.890;2023-02-11T14:29:30;99913.53;;;9.60;32.66
49949;BME280;35840;45.982;8.890;2023-02-11T14:37:26;99919.59;;;9.85;32.95
49949;BME280;35840;45.982;8.890;2023-02-11T14:42:29;99924.81;;;9.83;31.75
49949;BME280;35840;45.982;8.890;2023-02-11T14:45:03;99922.38;;;9.78;32.89
49949;BME280;35840;45.982;8.890;2023-02-11T14:47:40;99920.50;;;9.83;32.51
49949;BME280;35840;45.982;8.890;2023-02-11T14:50:17;99919.41;;;9.91;32.72
49949;BME280;35840;45.982;8.890;2023-02-11T14:52:45;99915.13;;;9.91;32.73
49949;BME280;35840;45.982;8.890;2023-02-11T14:58:04;99910.09;;;9.88;32.41
49949;BME280;35840;45.982;8.890;2023-02-11T15:00:31;99906.75;;;9.85;32.17
49949;BME280;35840;45.982;8.890;2023-02-11T15:02:58;99907.56;;;9.87;32.08
49949;BME280;35840;45.982;8.890;2023-02-11T15:05:27;99906.75;;;9.85;31.74
49949;BME280;35840;45.982;8.890;2023-02-11T15:07:57;99905.13;;;9.82;32.19
49949;BME280;35840;45.982;8.890;2023-02-11T15:10:30;99905.28;;;9.77;32.36
49949;BME280;35840;45.982;8.890;2023-02-11T15:12:59;99894.91;;;9.80;31.55
49949;BME280;35840;45.982;8.890;2023-02-11T15:15:28;99906.00;;;9.82;32.45
49949;BME280;35840;45.982;8.890;2023-02-11T15:17:58;99906.97;;;9.78;33.44
49949;BME280;35840;45.982;8.890;2023-02-11T15:20:28;99907.84;;;9.77;34.05
49949;BME280;35840;45.982;8.890;2023-02-11T15:23:02;99901.25;;;9.70;34.44
49949;BME280;35840;45.982;8.890;2023-02-11T15:25:30;99903.97;;;9.65;34.54
49949;BME280;35840;45.982;8.890;2023-02-11T15:27:59;99902.38;;;9.61;33.85
49949;BME280;35840;45.982;8.890;2023-02-11T15:30:31;99897.56;;;9.51;35.56